createdAt,value
2018-05-10T00:00:29.073Z,23.77
2018-05-10T00:01:00.761Z,22.98
2018-05-10T00:01:32.395Z,22.27
2018-05-10T00:02:06.783Z,22.70
2018-05-10T00:02:42.140Z,24.75
2018-05-10T00:03:13.780Z,22.13
2018-05-10T00:03:46.553Z,25.33
2018-05-10T00:04:21.758Z,23.52
2018-05-10T00:04:53.404Z,22.08
2018-05-10T00:05:25.044Z,24.45
2018-05-10T00:06:00.214Z,23.27
2018-05-10T00:06:34.302Z,24.83
2018-05-10T00:07:06.011Z,22.00
2018-05-10T00:07:39.272Z,21.17
2018-05-10T00:08:10.892Z,22.25
2018-05-10T00:08:42.523Z,20.58
2018-05-10T00:09:14.172Z,24.33
2018-05-10T00:09:51.935Z,25.83
2018-05-10T00:10:23.583Z,22.33
2018-05-10T00:10:55.233Z,25.25
2018-05-10T00:11:26.886Z,22.77
2018-05-10T00:11:58.528Z,25.08
2018-05-10T00:12:32.680Z,24.92
2018-05-10T00:13:05.293Z,21.52
2018-05-10T00:13:37.924Z,23.40
2018-05-10T00:14:12.122Z,22.52
2018-05-10T00:14:43.856Z,23.42
2018-05-10T00:15:15.504Z,24.80
2018-05-10T00:15:47.133Z,21.90
2018-05-10T00:16:18.788Z,23.98
2018-05-10T00:16:50.448Z,21.50
2018-05-10T00:17:22.081Z,25.30
2018-05-10T00:17:58.822Z,24.30
2018-05-10T00:18:31.832Z,26.75
2018-05-10T00:19:03.478Z,24.05
2018-05-10T00:19:35.112Z,23.98
2018-05-10T00:20:07.942Z,23.27
2018-05-10T00:20:39.595Z,22.98
2018-05-10T00:21:11.245Z,21.58
2018-05-10T00:21:46.932Z,26.65
2018-05-10T00:22:20.687Z,23.85
2018-05-10T00:22:52.310Z,21.77
2018-05-10T00:23:23.943Z,22.65
2018-05-10T00:23:55.572Z,23.25
2018-05-10T00:24:27.877Z,24.65
2018-05-10T00:24:59.423Z,28.15
2018-05-10T00:25:31.083Z,23.42
2018-05-10T00:26:03.870Z,23.02
2018-05-10T00:26:37.706Z,25.00
2018-05-10T00:27:09.340Z,24.15
2018-05-10T00:27:41.710Z,24.60
2018-05-10T00:28:13.304Z,25.42
2018-05-10T00:28:44.916Z,23.70
2018-05-10T00:29:16.552Z,24.67
2018-05-10T00:29:50.802Z,25.67
2018-05-10T00:30:24.306Z,25.02
2018-05-10T00:30:55.948Z,25.67
2018-05-10T00:31:27.579Z,23.67
2018-05-10T00:32:00.891Z,25.95
2018-05-10T00:32:35.326Z,23.65
2018-05-10T00:33:08.152Z,24.55
2018-05-10T00:33:54.724Z,26.92
2018-05-10T00:34:27.456Z,24.67
2018-05-10T00:35:01.334Z,23.73
2018-05-10T00:35:34.377Z,24.00
2018-05-10T00:36:06.025Z,25.35
2018-05-10T00:36:37.650Z,23.55
2018-05-10T00:37:15.832Z,24.02
2018-05-10T00:37:48.728Z,22.83
2018-05-10T00:38:20.372Z,24.63
2018-05-10T00:38:53.379Z,21.27
2018-05-10T00:39:25.033Z,21.08
2018-05-10T00:39:57.798Z,25.17
2018-05-10T00:40:30.974Z,22.90
2018-05-10T00:41:03.668Z,22.75
2018-05-10T00:41:35.306Z,28.55
2018-05-10T00:42:08.014Z,23.40
2018-05-10T00:42:39.674Z,26.90
2018-05-10T00:43:12.734Z,24.35
2018-05-10T00:43:44.393Z,24.73
2018-05-10T00:44:16.041Z,24.08
2018-05-10T00:44:47.670Z,23.83
2018-05-10T00:45:20.465Z,23.27
2018-05-10T00:45:52.133Z,25.77
2018-05-10T00:46:24.801Z,24.37
2018-05-10T00:46:57.971Z,24.08
2018-05-10T00:47:29.641Z,22.45
2018-05-10T00:48:01.295Z,24.92
2018-05-10T00:48:34.118Z,22.65
2018-05-10T00:49:11.189Z,22.42
2018-05-10T00:49:42.853Z,24.37
2018-05-10T00:50:15.680Z,23.15
2018-05-10T00:50:47.697Z,24.52
2018-05-10T00:51:20.753Z,25.90
2018-05-10T00:51:52.383Z,22.45
2018-05-10T00:52:24.075Z,27.13
2018-05-10T00:52:58.076Z,22.83
2018-05-10T00:53:31.895Z,25.52
2018-05-10T00:54:03.543Z,22.37
2018-05-10T00:54:54.910Z,21.80
2018-05-10T00:55:27.741Z,23.50
2018-05-10T00:55:59.378Z,27.40
2018-05-10T00:56:36.543Z,23.52
2018-05-10T00:57:09.413Z,21.75
2018-05-10T00:57:41.067Z,25.35
2018-05-10T00:58:12.699Z,23.50
2018-05-10T00:58:44.966Z,22.48
2018-05-10T00:59:17.873Z,21.02
2018-05-10T00:59:49.502Z,23.38
2018-05-10T01:00:29.592Z,21.52
2018-05-10T01:01:05.529Z,24.37
2018-05-10T01:01:40.451Z,22.80
2018-05-10T01:02:12.086Z,27.75
2018-05-10T01:02:44.493Z,23.52
2018-05-10T01:03:18.905Z,23.62
2018-05-10T01:03:50.539Z,22.30
2018-05-10T01:04:22.179Z,25.50
2018-05-10T01:04:55.087Z,27.48
2018-05-10T01:05:27.590Z,23.33
2018-05-10T01:06:00.615Z,22.77
2018-05-10T01:06:32.285Z,21.23
2018-05-10T01:07:06.353Z,25.50
2018-05-10T01:07:40.369Z,23.02
2018-05-10T01:08:12.009Z,24.85
2018-05-10T01:08:43.656Z,22.50
2018-05-10T01:09:15.286Z,26.55
2018-05-10T01:09:48.184Z,25.33
2018-05-10T01:10:29.314Z,23.85
2018-05-10T01:11:03.720Z,24.87
2018-05-10T01:11:35.386Z,24.37
2018-05-10T01:12:07.047Z,23.33
2018-05-10T01:12:38.727Z,21.85
2018-05-10T01:13:10.405Z,22.73
2018-05-10T01:13:42.061Z,25.12
2018-05-10T01:14:13.709Z,25.77
2018-05-10T01:14:45.350Z,23.33
2018-05-10T01:15:18.099Z,23.30
2018-05-10T01:15:51.169Z,23.52
2018-05-10T01:16:22.823Z,23.27
2018-05-10T01:16:54.470Z,23.02
2018-05-10T01:17:29.547Z,22.92
2018-05-10T01:18:05.287Z,25.60
2018-05-10T01:18:36.926Z,21.85
2018-05-10T01:19:08.565Z,26.92
2018-05-10T01:19:41.342Z,21.92
2018-05-10T01:20:15.349Z,25.12
2018-05-10T01:20:46.988Z,22.98
2018-05-10T01:21:18.633Z,23.30
2018-05-10T01:21:53.439Z,23.17
2018-05-10T01:22:28.686Z,27.58
2018-05-10T01:23:03.195Z,24.48
2018-05-10T01:23:34.842Z,23.95
2018-05-10T01:24:06.503Z,23.25
2018-05-10T01:24:38.132Z,24.02
2018-05-10T01:25:10.870Z,22.42
2018-05-10T01:25:42.521Z,23.90
2018-05-10T01:26:14.159Z,25.48
2018-05-10T01:26:45.795Z,26.37
2018-05-10T01:27:19.853Z,26.65
2018-05-10T01:27:51.481Z,27.75
2018-05-10T01:28:23.097Z,26.02
2018-05-10T01:28:56.859Z,24.23
2018-05-10T01:29:28.503Z,25.37
2018-05-10T01:30:00.179Z,24.87
2018-05-10T01:30:33.671Z,23.10
2018-05-10T01:31:08.090Z,21.73
2018-05-10T01:31:39.752Z,24.48
2018-05-10T01:32:12.309Z,29.90
2018-05-10T01:32:43.947Z,25.20
2018-05-10T01:33:18.557Z,27.27
2018-05-10T01:33:50.194Z,25.77
2018-05-10T01:34:21.814Z,25.77
2018-05-10T01:35:12.899Z,24.77
2018-05-10T01:36:03.015Z,29.73
2018-05-10T01:36:34.611Z,26.08
2018-05-10T01:37:07.658Z,26.45
2018-05-10T01:37:39.301Z,24.17
2018-05-10T01:38:10.968Z,25.70
2018-05-10T01:38:46.231Z,26.45
2018-05-10T01:39:20.743Z,24.77
2018-05-10T01:39:53.528Z,27.00
2018-05-10T01:40:25.162Z,25.37
2018-05-10T01:40:58.036Z,26.67
2018-05-10T01:41:30.865Z,26.08
2018-05-10T01:42:02.525Z,25.62
2018-05-10T01:42:37.975Z,30.23
2018-05-10T01:43:12.064Z,25.77
2018-05-10T01:43:45.207Z,23.20
2018-05-10T01:44:18.358Z,26.30
2018-05-10T01:44:49.992Z,28.48
2018-05-10T01:45:22.213Z,25.30
2018-05-10T01:45:53.899Z,27.30
2018-05-10T01:46:26.157Z,25.67
2018-05-10T01:47:00.293Z,27.98
2018-05-10T01:47:31.958Z,27.67
2018-05-10T01:48:03.583Z,26.20
2018-05-10T01:48:40.632Z,25.67
2018-05-10T01:49:16.720Z,27.73
2018-05-10T01:49:48.362Z,27.90
2018-05-10T01:50:23.557Z,25.25
2018-05-10T01:51:01.013Z,27.42
2018-05-10T01:51:33.991Z,27.15
2018-05-10T01:52:06.904Z,24.90
2018-05-10T01:52:39.472Z,26.67
2018-05-10T01:53:11.105Z,27.33
2018-05-10T01:53:42.729Z,25.65
2018-05-10T01:54:14.338Z,26.80
2018-05-10T01:54:50.978Z,30.23
2018-05-10T01:55:22.611Z,27.73
2018-05-10T01:55:54.258Z,26.85
2018-05-10T01:56:25.884Z,28.67
2018-05-10T01:57:03.819Z,30.27
2018-05-10T01:57:35.444Z,25.58
2018-05-10T01:58:07.087Z,27.58
2018-05-10T01:58:42.750Z,25.88
2018-05-10T01:59:14.460Z,26.20
2018-05-10T01:59:46.115Z,26.98
2018-05-10T02:00:17.792Z,29.55
2018-05-10T02:00:50.840Z,28.33
2018-05-10T02:01:23.796Z,30.65
2018-05-10T02:01:55.423Z,29.20
2018-05-10T02:02:27.063Z,27.83
2018-05-10T02:02:58.684Z,29.40
2018-05-10T02:03:31.298Z,26.95
2018-05-10T02:04:02.938Z,25.15
2018-05-10T02:04:36.084Z,27.73
2018-05-10T02:05:08.809Z,26.48
2018-05-10T02:05:41.818Z,25.90
2018-05-10T02:06:13.458Z,27.92
2018-05-10T02:06:46.954Z,30.62
2018-05-10T02:07:22.869Z,27.05
2018-05-10T02:07:54.524Z,26.65
2018-05-10T02:08:26.199Z,27.95
2018-05-10T02:08:59.515Z,27.75
2018-05-10T02:09:31.162Z,26.75
2018-05-10T02:10:02.845Z,27.13
2018-05-10T02:10:34.515Z,28.12
2018-05-10T02:11:06.963Z,29.58
2018-05-10T02:11:38.621Z,26.77
2018-05-10T02:12:10.299Z,27.55
2018-05-10T02:12:47.170Z,27.40
2018-05-10T02:13:18.904Z,28.55
2018-05-10T02:13:50.548Z,27.42
2018-05-10T02:14:27.987Z,25.83
2018-05-10T02:15:00.930Z,27.52
2018-05-10T02:15:32.554Z,26.95
2018-05-10T02:16:04.999Z,27.27
2018-05-10T02:16:36.636Z,27.75
2018-05-10T02:17:09.539Z,30.25
2018-05-10T02:17:43.738Z,29.70
2018-05-10T02:18:15.361Z,26.00
2018-05-10T02:18:49.094Z,30.88
2018-05-10T02:19:21.844Z,26.75
2018-05-10T02:19:56.902Z,30.62
2018-05-10T02:20:28.530Z,27.80
2018-05-10T02:21:00.172Z,28.83
2018-05-10T02:21:32.978Z,28.85
2018-05-10T02:22:04.618Z,27.30
2018-05-10T02:22:36.320Z,26.55
2018-05-10T02:23:07.985Z,30.83
2018-05-10T02:23:42.164Z,28.17
2018-05-10T02:24:14.444Z,29.10
2018-05-10T02:24:46.076Z,28.75
2018-05-10T02:25:20.131Z,30.48
2018-05-10T02:25:53.091Z,28.45
2018-05-10T02:26:24.733Z,28.62
2018-05-10T02:26:56.367Z,29.80
2018-05-10T02:27:28.003Z,29.67
2018-05-10T02:28:00.667Z,28.60
2018-05-10T02:28:32.312Z,26.15
2018-05-10T02:29:05.032Z,24.75
2018-05-10T02:29:39.282Z,30.58
2018-05-10T02:30:10.931Z,28.65
2018-05-10T02:30:42.606Z,28.52
2018-05-10T02:31:16.402Z,29.63
2018-05-10T02:31:49.492Z,28.75
2018-05-10T02:32:22.416Z,28.52
2018-05-10T02:32:55.502Z,27.45
2018-05-10T02:33:27.128Z,26.07
2018-05-10T02:33:58.784Z,27.40
2018-05-10T02:34:30.402Z,25.55
2018-05-10T02:35:03.561Z,27.95
2018-05-10T02:35:37.802Z,30.42
2018-05-10T02:36:09.434Z,25.88
2018-05-10T02:36:42.269Z,27.30
2018-05-10T02:37:15.561Z,28.30
2018-05-10T02:37:51.880Z,27.37
2018-05-10T02:38:24.609Z,28.42
2018-05-10T02:38:56.272Z,25.27
2018-05-10T02:39:28.992Z,27.92
2018-05-10T02:40:04.319Z,28.38
2018-05-10T02:40:37.472Z,27.62
2018-05-10T02:41:09.137Z,25.20
2018-05-10T02:41:41.831Z,27.55
2018-05-10T02:42:13.480Z,28.42
2018-05-10T02:42:47.658Z,28.35
2018-05-10T02:43:21.907Z,31.17
2018-05-10T02:43:54.461Z,27.08
2018-05-10T02:44:26.091Z,28.05
2018-05-10T02:44:57.825Z,27.80
2018-05-10T02:45:30.378Z,26.65
2018-05-10T02:46:05.868Z,25.85
2018-05-10T02:46:37.509Z,27.10
2018-05-10T02:47:09.218Z,28.90
2018-05-10T02:47:40.865Z,27.52
2018-05-10T02:48:13.476Z,26.10
2018-05-10T02:48:47.246Z,27.23
2018-05-10T02:49:18.906Z,27.20
2018-05-10T02:49:51.614Z,25.05
2018-05-10T02:50:24.528Z,26.75
2018-05-10T02:50:56.154Z,26.65
2018-05-10T02:51:27.786Z,26.45
2018-05-10T02:51:59.444Z,27.58
2018-05-10T02:52:31.087Z,26.62
2018-05-10T02:53:02.713Z,25.20
2018-05-10T02:53:35.390Z,26.85
2018-05-10T02:54:09.357Z,27.33
2018-05-10T02:54:42.033Z,23.33
2018-05-10T02:55:14.583Z,24.85
2018-05-10T02:55:46.205Z,26.23
2018-05-10T02:56:17.854Z,25.88
2018-05-10T02:56:49.493Z,26.03
2018-05-10T02:57:21.135Z,26.62
2018-05-10T02:58:00.596Z,24.80
2018-05-10T02:58:34.814Z,24.92
2018-05-10T02:59:06.441Z,26.67
2018-05-10T02:59:38.123Z,26.80
2018-05-10T03:00:09.787Z,24.42
2018-05-10T03:00:43.798Z,26.85
2018-05-10T03:01:16.347Z,27.17
2018-05-10T03:01:49.075Z,26.45
2018-05-10T03:02:28.916Z,24.80
2018-05-10T03:03:00.550Z,25.23
2018-05-10T03:03:32.222Z,26.73
2018-05-10T03:04:04.493Z,25.88
2018-05-10T03:04:40.636Z,26.83
2018-05-10T03:05:12.307Z,26.75
2018-05-10T03:05:43.960Z,26.73
2018-05-10T03:06:19.682Z,26.15
2018-05-10T03:06:51.930Z,25.77
2018-05-10T03:07:23.563Z,26.30
2018-05-10T03:07:57.696Z,26.42
2018-05-10T03:08:34.814Z,27.77
2018-05-10T03:09:08.456Z,24.33
2018-05-10T03:09:40.074Z,26.95
2018-05-10T03:10:11.708Z,26.25
2018-05-10T03:11:23.870Z,28.98
2018-05-10T03:11:55.505Z,28.58
2018-05-10T03:12:29.579Z,26.58
2018-05-10T03:13:01.215Z,27.27
2018-05-10T03:13:32.856Z,28.73
2018-05-10T03:14:04.482Z,26.05
2018-05-10T03:14:43.635Z,25.27
2018-05-10T03:15:15.974Z,27.83
2018-05-10T03:15:47.600Z,30.67
2018-05-10T03:16:19.257Z,26.48
2018-05-10T03:16:50.903Z,28.42
2018-05-10T03:17:22.558Z,28.27
2018-05-10T03:17:54.206Z,28.65
2018-05-10T03:18:27.164Z,27.92
2018-05-10T03:19:00.110Z,27.10
2018-05-10T03:19:31.782Z,26.87
2018-05-10T03:20:03.426Z,28.02
2018-05-10T03:20:37.090Z,30.75
2018-05-10T03:21:10.990Z,26.67
2018-05-10T03:21:42.648Z,29.17
2018-05-10T03:22:14.298Z,30.95
2018-05-10T03:22:47.704Z,26.08
2018-05-10T03:23:21.569Z,25.70
2018-05-10T03:23:56.294Z,27.27
2018-05-10T03:24:27.947Z,25.92
2018-05-10T03:24:59.594Z,27.08
2018-05-10T03:25:31.263Z,26.75
2018-05-10T03:26:06.329Z,25.00
2018-05-10T03:26:40.310Z,26.02
2018-05-10T03:27:13.276Z,24.75
2018-05-10T03:27:44.934Z,25.00
2018-05-10T03:28:19.900Z,28.85
2018-05-10T03:28:52.402Z,25.55
2018-05-10T03:29:24.054Z,26.42
2018-05-10T03:29:56.267Z,26.65
2018-05-10T03:30:31.768Z,24.58
2018-05-10T03:31:04.033Z,27.80
2018-05-10T03:31:37.533Z,26.30
2018-05-10T03:32:10.505Z,25.88
2018-05-10T03:32:42.178Z,26.02
2018-05-10T03:33:13.892Z,24.42
2018-05-10T03:33:47.994Z,24.52
2018-05-10T03:34:22.253Z,26.12
2018-05-10T03:34:53.899Z,23.05
2018-05-10T03:35:25.546Z,26.42
2018-05-10T03:35:57.206Z,25.55
2018-05-10T03:36:31.027Z,25.10
2018-05-10T03:37:02.768Z,25.30
2018-05-10T03:37:34.417Z,23.60
2018-05-10T03:38:06.049Z,25.02
2018-05-10T03:38:37.663Z,27.02
2018-05-10T03:39:12.681Z,25.30
2018-05-10T03:39:45.616Z,25.52
2018-05-10T03:40:22.524Z,27.52
2018-05-10T03:40:59.330Z,24.48
2018-05-10T03:41:32.462Z,25.17
2018-05-10T03:42:04.090Z,27.75
2018-05-10T03:42:35.732Z,27.58
2018-05-10T03:43:07.363Z,24.05
2018-05-10T03:43:39.004Z,26.10
2018-05-10T03:44:10.627Z,23.70
2018-05-10T03:44:42.289Z,24.58
2018-05-10T03:45:13.910Z,24.95
2018-05-10T03:45:45.536Z,24.15
2018-05-10T03:46:18.724Z,24.37
2018-05-10T03:46:51.610Z,24.48
2018-05-10T03:47:23.236Z,25.50
2018-05-10T03:47:54.880Z,24.77
2018-05-10T03:48:26.559Z,25.80
2018-05-10T03:48:59.406Z,24.05
2018-05-10T03:49:31.134Z,25.33
2018-05-10T03:50:06.268Z,26.05
2018-05-10T03:50:39.374Z,25.15
2018-05-10T03:51:10.996Z,23.85
2018-05-10T03:51:42.640Z,25.35
2018-05-10T03:52:14.283Z,24.33
2018-05-10T03:52:49.998Z,25.85
2018-05-10T03:53:22.225Z,25.62
2018-05-10T03:53:55.131Z,25.77
2018-05-10T03:54:28.469Z,29.87
2018-05-10T03:55:01.327Z,31.02
2018-05-10T03:55:33.012Z,27.10
2018-05-10T03:56:06.076Z,26.95
2018-05-10T03:56:37.725Z,27.13
2018-05-10T03:57:11.777Z,24.45
2018-05-10T03:57:44.712Z,27.87
2018-05-10T03:58:19.908Z,26.10
2018-05-10T03:58:52.626Z,28.67
2018-05-10T03:59:26.874Z,25.95
2018-05-10T04:00:03.464Z,26.48
2018-05-10T04:00:35.103Z,30.70
2018-05-10T04:01:06.756Z,27.98
2018-05-10T04:01:39.805Z,26.45
2018-05-10T04:02:14.823Z,28.00
2018-05-10T04:04:42.447Z,27.00
2018-05-10T04:05:44.876Z,27.35
2018-05-10T04:06:35.149Z,27.27
2018-05-10T04:07:25.340Z,28.23
2018-05-10T04:08:15.787Z,28.70
2018-05-10T04:09:05.969Z,26.85
2018-05-10T04:09:57.416Z,27.35
2018-05-10T04:10:47.507Z,31.08
2018-05-10T04:11:26.722Z,28.30
2018-05-10T04:12:00.611Z,28.75
2018-05-10T04:12:32.284Z,27.90
2018-05-10T04:13:03.912Z,30.48
2018-05-10T04:13:35.546Z,28.48
2018-05-10T04:14:07.188Z,30.48
2018-05-10T04:14:38.817Z,27.62
2018-05-10T04:15:11.903Z,26.10
2018-05-10T04:15:46.447Z,29.15
2018-05-10T04:16:19.408Z,28.75
2018-05-10T04:16:51.029Z,29.45
2018-05-10T04:17:22.644Z,32.80
2018-05-10T04:17:56.638Z,28.95
2018-05-10T04:18:28.275Z,29.37
2018-05-10T04:18:59.899Z,31.15
2018-05-10T04:19:33.366Z,28.95
2018-05-10T04:20:06.163Z,28.67
2018-05-10T04:20:37.789Z,31.87
2018-05-10T04:21:09.419Z,29.92
2018-05-10T04:21:42.686Z,29.40
2018-05-10T04:22:14.303Z,28.40
2018-05-10T04:22:45.946Z,27.75
2018-05-10T04:23:19.073Z,30.52
2018-05-10T04:23:53.043Z,29.08
2018-05-10T04:24:25.800Z,31.15
2018-05-10T04:24:57.393Z,30.70
2018-05-10T04:25:29.031Z,28.80
2018-05-10T04:26:01.841Z,31.10
2018-05-10T04:26:35.441Z,26.17
2018-05-10T04:27:07.098Z,29.07
2018-05-10T04:27:38.734Z,29.10
2018-05-10T04:28:14.451Z,32.75
2018-05-10T04:28:47.492Z,29.33
2018-05-10T04:29:20.145Z,27.98
2018-05-10T04:29:51.847Z,31.35
2018-05-10T04:30:23.473Z,30.48
2018-05-10T04:30:55.097Z,29.25
2018-05-10T04:31:26.737Z,28.65
2018-05-10T04:31:58.400Z,30.08
2018-05-10T04:32:31.331Z,31.02
2018-05-10T04:33:04.872Z,34.75
2018-05-10T04:33:36.527Z,31.90
2018-05-10T04:34:08.166Z,31.55
2018-05-10T04:34:39.818Z,29.25
2018-05-10T04:35:12.307Z,37.08
2018-05-10T04:35:43.981Z,32.95
2018-05-10T04:36:15.632Z,33.10
2018-05-10T04:36:47.282Z,30.98
2018-05-10T04:37:18.910Z,31.05
2018-05-10T04:37:51.149Z,32.40
2018-05-10T04:38:22.783Z,33.95
2018-05-10T04:38:55.551Z,32.30
2018-05-10T04:39:29.048Z,30.30
2018-05-10T04:40:03.811Z,28.62
2018-05-10T04:40:35.436Z,32.90
2018-05-10T04:41:08.203Z,31.92
2018-05-10T04:41:42.091Z,34.40
2018-05-10T04:42:13.844Z,30.23
2018-05-10T04:42:45.413Z,32.20
2018-05-10T04:43:21.619Z,29.80
2018-05-10T04:43:54.713Z,35.55
2018-05-10T04:44:27.389Z,33.22
2018-05-10T04:45:00.290Z,32.80
2018-05-10T04:45:32.706Z,29.75
2018-05-10T04:46:04.509Z,33.92
2018-05-10T04:46:37.594Z,28.17
2018-05-10T04:47:11.165Z,26.80
2018-05-10T04:47:42.776Z,30.85
2018-05-10T04:48:14.404Z,26.60
2018-05-10T04:48:48.722Z,33.08
2018-05-10T04:49:26.907Z,31.05
2018-05-10T04:49:58.548Z,31.00
2018-05-10T04:50:30.179Z,24.40
2018-05-10T04:51:01.803Z,27.00
2018-05-10T04:51:33.436Z,29.12
2018-05-10T04:52:05.049Z,28.25
2018-05-10T04:52:36.678Z,24.50
2018-05-10T04:53:08.318Z,26.85
2018-05-10T04:53:39.946Z,25.45
2018-05-10T04:54:11.574Z,25.88
2018-05-10T04:54:43.252Z,26.37
2018-05-10T04:55:14.818Z,26.85
2018-05-10T04:55:46.451Z,29.02
2018-05-10T04:56:18.104Z,27.98
2018-05-10T04:56:49.737Z,22.08
2018-05-10T04:57:21.393Z,24.67
2018-05-10T04:57:53.054Z,25.42
2018-05-10T04:58:24.676Z,21.02
2018-05-10T04:58:56.309Z,23.50
2018-05-10T04:59:27.938Z,24.00
2018-05-10T04:59:59.552Z,21.75
2018-05-10T05:00:31.190Z,21.35
2018-05-10T05:01:02.825Z,30.83
2018-05-10T05:01:34.485Z,21.48
2018-05-10T05:02:06.082Z,21.77
2018-05-10T05:02:37.713Z,24.95
2018-05-10T05:03:09.364Z,20.85
2018-05-10T05:03:40.990Z,23.10
2018-05-10T05:04:12.626Z,23.15
2018-05-10T05:04:44.264Z,24.90
2018-05-10T05:05:15.921Z,22.05
2018-05-10T05:05:47.568Z,22.65
2018-05-10T05:06:19.204Z,17.73
2018-05-10T05:06:50.856Z,21.75
2018-05-10T05:07:22.486Z,21.52
2018-05-10T05:07:54.118Z,23.83
2018-05-10T05:08:25.753Z,18.45
2018-05-10T05:08:57.397Z,21.75
2018-05-10T05:09:29.028Z,23.75
2018-05-10T05:10:00.656Z,20.12
2018-05-10T05:10:32.276Z,17.70
2018-05-10T05:11:03.931Z,23.12
2018-05-10T05:11:35.561Z,21.00
2018-05-10T05:12:07.188Z,21.15
2018-05-10T05:12:38.806Z,22.65
2018-05-10T05:13:10.432Z,25.12
2018-05-10T05:13:42.067Z,22.17
2018-05-10T05:14:13.710Z,22.67
2018-05-10T05:14:45.368Z,22.27
2018-05-10T05:15:17.002Z,21.55
2018-05-10T05:15:48.640Z,20.45
2018-05-10T05:16:20.270Z,22.98
2018-05-10T05:16:51.909Z,23.58
2018-05-10T05:17:23.564Z,21.65
2018-05-10T05:17:55.208Z,20.27
2018-05-10T05:18:26.829Z,26.52
2018-05-10T05:18:58.487Z,23.35
2018-05-10T05:19:30.144Z,19.45
2018-05-10T05:20:01.772Z,18.65
2018-05-10T05:20:33.389Z,26.85
2018-05-10T05:21:05.042Z,21.12
2018-05-10T05:21:36.724Z,17.15
2018-05-10T05:22:08.332Z,20.45
2018-05-10T05:22:39.966Z,21.30
2018-05-10T05:23:11.600Z,20.15
2018-05-10T05:23:43.256Z,19.33
2018-05-10T05:24:14.940Z,19.87
2018-05-10T05:24:46.580Z,17.73
2018-05-10T05:25:18.213Z,16.98
2018-05-10T05:25:49.844Z,25.20
2018-05-10T05:26:21.484Z,21.25
2018-05-10T05:26:53.155Z,22.52
2018-05-10T05:27:24.758Z,19.17
2018-05-10T05:27:56.368Z,20.12
2018-05-10T05:28:28.030Z,24.75
2018-05-10T05:28:59.660Z,13.88
2018-05-10T05:29:31.309Z,20.27
2018-05-10T05:30:02.963Z,19.42
2018-05-10T05:30:34.610Z,17.33
2018-05-10T05:31:06.282Z,22.17
2018-05-10T05:31:37.920Z,16.80
2018-05-10T05:32:09.542Z,16.40
2018-05-10T05:32:41.269Z,15.67
2018-05-10T05:33:12.834Z,16.70
2018-05-10T05:33:44.457Z,19.77
2018-05-10T05:34:16.086Z,20.12
2018-05-10T05:34:47.738Z,14.68
2018-05-10T05:35:19.398Z,19.60
2018-05-10T05:35:51.048Z,18.05
2018-05-10T05:36:22.686Z,16.90
2018-05-10T05:36:54.322Z,18.27
2018-05-10T05:37:25.961Z,18.40
2018-05-10T05:37:57.592Z,17.12
2018-05-10T05:38:29.244Z,21.17
2018-05-10T05:39:00.900Z,18.95
2018-05-10T05:39:32.544Z,18.15
2018-05-10T05:40:04.192Z,20.25
2018-05-10T05:40:35.816Z,15.95
2018-05-10T05:41:07.501Z,18.90
2018-05-10T05:41:39.180Z,15.98
2018-05-10T05:42:10.824Z,18.25
2018-05-10T05:52:32.473Z,17.67
2018-05-10T05:53:04.088Z,17.85
2018-05-10T05:53:35.705Z,17.80
2018-05-10T05:54:07.315Z,19.83
2018-05-10T05:54:38.952Z,18.00
2018-05-10T05:55:10.560Z,20.10
2018-05-10T05:55:42.209Z,18.20
2018-05-10T05:56:13.804Z,15.00
2018-05-10T05:56:45.445Z,17.55
2018-05-10T05:57:17.066Z,18.80
2018-05-10T05:57:48.704Z,19.75
2018-05-10T05:58:20.342Z,16.42
2018-05-10T05:58:51.976Z,26.10
2018-05-10T05:59:23.597Z,21.90
2018-05-10T05:59:55.222Z,16.37
2018-05-10T06:00:26.867Z,14.32
2018-05-10T06:00:58.552Z,19.90
2018-05-10T06:01:30.128Z,19.80
2018-05-10T06:02:01.746Z,13.02
2018-05-10T06:02:33.371Z,22.77
2018-05-10T06:03:04.986Z,21.27
2018-05-10T06:03:36.662Z,15.02
2018-05-10T06:04:08.335Z,18.55
2018-05-10T06:04:40.004Z,17.62
2018-05-10T06:05:11.647Z,23.20
2018-05-10T06:05:43.285Z,21.98
2018-05-10T06:06:14.922Z,17.92
2018-05-10T06:06:46.576Z,17.58
2018-05-10T06:07:18.204Z,22.42
2018-05-10T06:07:49.856Z,16.98
2018-05-10T06:08:21.486Z,16.27
2018-05-10T06:08:53.121Z,21.52
2018-05-10T06:09:24.755Z,20.92
2018-05-10T06:09:56.395Z,20.92
2018-05-10T06:10:28.035Z,19.90
2018-05-10T06:10:59.656Z,20.58
2018-05-10T06:11:31.288Z,13.50
2018-05-10T06:12:02.950Z,14.52
2018-05-10T06:12:34.587Z,14.85
2018-05-10T06:13:06.212Z,15.38
2018-05-10T06:13:37.852Z,15.80
2018-05-10T06:14:09.512Z,21.85
2018-05-10T06:14:41.134Z,16.60
2018-05-10T06:15:12.758Z,15.02
2018-05-10T06:15:44.398Z,17.85
2018-05-10T06:16:16.028Z,20.48
2018-05-10T06:16:47.653Z,18.08
2018-05-10T06:17:19.300Z,17.25
2018-05-10T06:17:50.964Z,18.02
2018-05-10T06:18:22.574Z,17.83
2018-05-10T06:18:54.226Z,17.05
2018-05-10T06:19:25.852Z,18.42
2018-05-10T06:19:57.492Z,20.85
2018-05-10T06:20:29.108Z,20.35
2018-05-10T06:21:00.742Z,15.68
2018-05-10T06:21:32.409Z,20.95
2018-05-10T06:22:04.055Z,23.02
2018-05-10T06:22:35.698Z,15.77
2018-05-10T06:23:07.331Z,16.40
2018-05-10T06:23:38.971Z,23.38
2018-05-10T06:24:10.610Z,18.95
2018-05-10T06:24:42.373Z,20.17
2018-05-10T06:25:13.926Z,15.88
2018-05-10T06:25:45.546Z,20.00
2018-05-10T06:26:17.202Z,20.12
2018-05-10T06:26:48.834Z,17.20
2018-05-10T06:27:20.489Z,18.35
2018-05-10T06:27:52.123Z,16.17
2018-05-10T06:28:23.752Z,19.73
2018-05-10T06:28:55.380Z,22.65
2018-05-10T06:29:27.026Z,21.80
2018-05-10T06:29:58.658Z,14.45
2018-05-10T06:30:30.304Z,24.77
2018-05-10T06:31:01.914Z,21.77
2018-05-10T06:31:33.562Z,21.90
2018-05-10T06:32:05.200Z,17.42
2018-05-10T06:32:36.830Z,18.25
2018-05-10T06:33:08.472Z,22.65
2018-05-10T06:33:40.128Z,25.83
2018-05-10T06:34:11.781Z,26.25
2018-05-10T06:34:43.437Z,18.27
2018-05-10T06:35:15.071Z,22.15
2018-05-10T06:35:46.716Z,16.50
2018-05-10T06:36:18.344Z,17.33
2018-05-10T06:36:50.001Z,21.87
2018-05-10T06:37:21.646Z,22.45
2018-05-10T06:37:53.288Z,20.65
2018-05-10T06:38:24.925Z,16.95
2018-05-10T06:38:56.550Z,23.20
2018-05-10T06:39:28.174Z,22.52
2018-05-10T06:39:59.816Z,17.37
2018-05-10T06:40:31.468Z,22.20
2018-05-10T06:41:03.102Z,27.80
2018-05-10T06:41:34.751Z,23.20
2018-05-10T06:42:06.368Z,21.58
2018-05-10T06:42:37.980Z,20.45
2018-05-10T06:43:09.632Z,22.48
2018-05-10T06:43:41.276Z,18.77
2018-05-10T06:44:12.926Z,21.00
2018-05-10T06:44:44.548Z,17.62
2018-05-10T06:45:16.171Z,16.17
2018-05-10T06:45:47.804Z,33.08
2018-05-10T06:46:19.428Z,22.92
2018-05-10T06:46:51.091Z,20.30
2018-05-10T06:47:22.726Z,17.80
2018-05-10T06:47:54.334Z,19.15
2018-05-10T06:48:25.978Z,20.23
2018-05-10T06:48:57.626Z,19.95
2018-05-10T06:49:29.320Z,21.52
2018-05-10T06:50:00.938Z,18.65
2018-05-10T06:50:32.605Z,20.33
2018-05-10T06:51:04.218Z,23.67
2018-05-10T06:51:35.852Z,25.83
2018-05-10T06:52:07.484Z,21.40
2018-05-10T06:52:39.108Z,22.92
2018-05-10T06:53:10.740Z,23.48
2018-05-10T06:53:42.378Z,23.95
2018-05-10T06:54:13.997Z,25.58
2018-05-10T06:54:45.709Z,19.15
2018-05-10T06:55:17.284Z,17.77
2018-05-10T06:55:48.898Z,23.23
2018-05-10T06:56:20.544Z,20.83
2018-05-10T06:56:52.163Z,23.58
2018-05-10T06:57:23.802Z,22.40
2018-05-10T06:57:55.413Z,22.98
2018-05-10T06:58:27.061Z,29.20
2018-05-10T06:58:58.698Z,21.20
2018-05-10T06:59:30.319Z,19.48
2018-05-10T07:00:01.965Z,25.23
2018-05-10T07:00:33.626Z,16.30
2018-05-10T07:01:05.258Z,26.95
2018-05-10T07:01:36.899Z,23.65
2018-05-10T07:02:08.510Z,25.25
2018-05-10T07:02:40.173Z,19.42
2018-05-10T07:03:11.809Z,24.40
2018-05-10T07:03:43.422Z,21.25
2018-05-10T07:04:15.050Z,19.80
2018-05-10T07:04:46.664Z,21.20
2018-05-10T07:05:18.284Z,36.15
2018-05-10T07:05:49.915Z,24.52
2018-05-10T07:06:21.556Z,19.33
2018-05-10T07:06:53.214Z,23.80
2018-05-10T07:07:24.859Z,17.42
2018-05-10T07:07:56.492Z,24.63
2018-05-10T07:08:28.121Z,24.73
2018-05-10T07:08:59.767Z,24.27
2018-05-10T07:09:31.519Z,20.70
2018-05-10T07:10:03.105Z,23.77
2018-05-10T07:10:34.761Z,20.80
2018-05-10T07:11:06.410Z,21.95
2018-05-10T07:11:38.041Z,20.30
2018-05-10T07:12:09.675Z,21.62
2018-05-10T07:12:41.302Z,21.73
2018-05-10T07:13:12.927Z,21.40